sensor_id;sensor_type;location;lat;lon;timestamp;pressure;altitude;pressure_sealevel;temperature;humidity
59729;BME280;45588;51.598;5.618;2022-10-26T00:00:51;101288.50;;;9.35;100.00
59729;BME280;45588;51.598;5.618;2022-10-26T00:03:16;101279.81;;;9.34;100.00
59729;BME280;45588;51.598;5.618;2022-10-26T00:05:42;101280.00;;;9.39;100.00
59729;BME280;45588;51.598;5.618;2022-10-26T00:08:08;101282.69;;;9.42;100.00
59729;BME280;45588;51.598;5.618;2022-10-26T00:10:34;101278.44;;;9.44;100.00
59729;BME280;45588;51.598;5.618;2022-10-26T00:13:00;101275.91;;;9.45;100.00
59729;BME280;45588;51.598;5.618;2022-10-26T00:15:26;101269.75;;;9.43;100.00
59729;BME280;45588;51.598;5.618;2022-10-26T00:17:52;101259.38;;;9.43;100.00
59729;BME280;45588;51.598;5.618;2022-10-26T00:20:17;101264.91;;;9.54;100.00
59729;BME280;45588;51.598;5.618;2022-10-26T00:22:43;101261.75;;;9.63;100.00
59729;BME280;45588;51.598;5.618;2022-10-26T00:25:08;101264.41;;;9.64;100.00
59729;BME280;45588;51.598;5.618;2022-10-26T00:27:34;101257.63;;;9.69;100.00
59729;BME280;45588;51.598;5.618;2022-10-26T00:30:00;101252.53;;;9.72;100.00
59729;BME280;45588;51.598;5.618;2022-10-26T00:32:25;101253.38;;;9.71;100.00
59729;BME280;45588;51.598;5.618;2022-10-26T00:34:51;101251.63;;;9.72;100.00
59729;BME280;45588;51.598;5.618;2022-10-26T00:37:16;101238.59;;;9.70;100.00
59729;BME280;45588;51.598;5.618;2022-10-26T00:39:41;101241.41;;;9.77;100.00
59729;BME280;45588;51.598;5.618;2022-10-26T00:42:11;101242.38;;;9.80;100.00
59729;BME280;45588;51.598;5.618;2022-10-26T00:47:09;101247.00;;;9.89;100.00
59729;BME280;45588;51.598;5.618;2022-10-26T00:49:37;101232.31;;;9.91;100.00
59729;BME280;45588;51.598;5.618;2022-10-26T00:52:03;101231.56;;;9.95;100.00
59729;BME280;45588;51.598;5.618;2022-10-26T00:54:28;101223.81;;;9.96;100.00
59729;BME280;45588;51.598;5.618;2022-10-26T00:56:54;101223.03;;;9.99;100.00
59729;BME280;45588;51.598;5.618;2022-10-26T00:59:20;101226.66;;;10.04;100.00
59729;BME280;45588;51.598;5.618;2022-10-26T01:01:47;101226.75;;;10.07;100.00
59729;BME280;45588;51.598;5.618;2022-10-26T01:04:14;101222.41;;;10.06;100.00
59729;BME280;45588;51.598;5.618;2022-10-26T01:06:41;101233.03;;;10.14;100.00
59729;BME280;45588;51.598;5.618;2022-10-26T01:09:08;101240.94;;;10.17;100.00
59729;BME280;45588;51.598;5.618;2022-10-26T01:11:34;101239.22;;;10.17;100.00
59729;BME280;45588;51.598;5.618;2022-10-26T01:14:00;101245.44;;;10.23;100.00
59729;BME280;45588;51.598;5.618;2022-10-26T01:25:24;101228.41;;;10.31;100.00
59729;BME280;45588;51.598;5.618;2022-10-26T01:27:54;101216.28;;;10.33;100.00
59729;BME280;45588;51.598;5.618;2022-10-26T01:30:39;101213.69;;;10.33;100.00
59729;BME280;45588;51.598;5.618;2022-10-26T01:38:43;101213.47;;;10.27;100.00
59729;BME280;45588;51.598;5.618;2022-10-26T01:41:25;101210.00;;;10.26;100.00
59729;BME280;45588;51.598;5.618;2022-10-26T01:44:02;101207.50;;;10.29;100.00
59729;BME280;45588;51.598;5.618;2022-10-26T01:46:31;101203.06;;;10.27;100.00
59729;BME280;45588;51.598;5.618;2022-10-26T01:49:05;101197.84;;;10.27;100.00
59729;BME280;45588;51.598;5.618;2022-10-26T01:51:33;101197.78;;;10.24;100.00
59729;BME280;45588;51.598;5.618;2022-10-26T01:53:58;101189.03;;;10.22;100.00
59729;BME280;45588;51.598;5.618;2022-10-26T01:56:29;101190.91;;;10.26;100.00
59729;BME280;45588;51.598;5.618;2022-10-26T01:59:09;101188.41;;;10.29;100.00
59729;BME280;45588;51.598;5.618;2022-10-26T02:07:02;101177.16;;;10.30;100.00
59729;BME280;45588;51.598;5.618;2022-10-26T02:12:06;101177.16;;;10.30;100.00
59729;BME280;45588;51.598;5.618;2022-10-26T02:17:32;101172.81;;;10.30;100.00
59729;BME280;45588;51.598;5.618;2022-10-26T02:20:03;101176.06;;;10.23;100.00
59729;BME280;45588;51.598;5.618;2022-10-26T02:22:35;101172.56;;;10.23;100.00
59729;BME280;45588;51.598;5.618;2022-10-26T02:25:08;101178.63;;;10.22;100.00
59729;BME280;45588;51.598;5.618;2022-10-26T02:27:40;101168.16;;;10.20;100.00
59729;BME280;45588;51.598;5.618;2022-10-26T02:30:08;101172.41;;;10.16;100.00
59729;BME280;45588;51.598;5.618;2022-10-26T02:32:36;101166.81;;;10.04;100.00
59729;BME280;45588;51.598;5.618;2022-10-26T02:35:04;101158.13;;;10.04;100.00
59729;BME280;45588;51.598;5.618;2022-10-26T02:37:31;101167.84;;;10.09;100.00
59729;BME280;45588;51.598;5.618;2022-10-26T02:39:59;101167.84;;;10.09;100.00
59729;BME280;45588;51.598;5.618;2022-10-26T02:42:27;101166.88;;;10.06;100.00
59729;BME280;45588;51.598;5.618;2022-10-26T02:44:55;101164.16;;;10.03;100.00
59729;BME280;45588;51.598;5.618;2022-10-26T02:47:22;101154.53;;;10.00;100.00
59729;BME280;45588;51.598;5.618;2022-10-26T02:49:48;101163.50;;;10.10;100.00
59729;BME280;45588;51.598;5.618;2022-10-26T02:55:02;101142.53;;;10.04;100.00
59729;BME280;45588;51.598;5.618;2022-10-26T02:57:43;101148.03;;;10.14;100.00
59729;BME280;45588;51.598;5.618;2022-10-26T03:00:11;101149.69;;;10.11;100.00
59729;BME280;45588;51.598;5.618;2022-10-26T03:02:37;101152.31;;;10.12;100.00
59729;BME280;45588;51.598;5.618;2022-10-26T03:05:09;101141.72;;;10.06;100.00
59729;BME280;45588;51.598;5.618;2022-10-26T03:07:37;101146.22;;;10.12;100.00
59729;BME280;45588;51.598;5.618;2022-10-26T03:10:02;101153.19;;;10.13;100.00
59729;BME280;45588;51.598;5.618;2022-10-26T03:12:28;101141.75;;;10.08;100.00
59729;BME280;45588;51.598;5.618;2022-10-26T03:14:53;101149.56;;;10.08;100.00
59729;BME280;45588;51.598;5.618;2022-10-26T03:17:18;101135.66;;;10.06;100.00
59729;BME280;45588;51.598;5.618;2022-10-26T03:19:43;101139.28;;;10.11;100.00
59729;BME280;45588;51.598;5.618;2022-10-26T03:22:09;101147.03;;;10.09;100.00
59729;BME280;45588;51.598;5.618;2022-10-26T03:24:34;101145.28;;;10.10;100.00
59729;BME280;45588;51.598;5.618;2022-10-26T03:26:59;101140.81;;;10.04;100.00
59729;BME280;45588;51.598;5.618;2022-10-26T03:29:24;101143.53;;;10.09;100.00
59729;BME280;45588;51.598;5.618;2022-10-26T03:31:50;101140.94;;;10.09;100.00
59729;BME280;45588;51.598;5.618;2022-10-26T03:34:18;101147.91;;;10.10;100.00
59729;BME280;45588;51.598;5.618;2022-10-26T03:36:44;101145.28;;;10.08;100.00
59729;BME280;45588;51.598;5.618;2022-10-26T03:39:09;101155.69;;;10.08;100.00
59729;BME280;45588;51.598;5.618;2022-10-26T03:41:35;101143.56;;;10.10;100.00
59729;BME280;45588;51.598;5.618;2022-10-26T03:44:00;101137.56;;;10.13;100.00
59729;BME280;45588;51.598;5.618;2022-10-26T03:46:25;101142.03;;;10.17;100.00
59729;BME280;45588;51.598;5.618;2022-10-26T03:48:50;101139.50;;;10.18;100.00
59729;BME280;45588;51.598;5.618;2022-10-26T03:51:16;101121.19;;;10.15;100.00
59729;BME280;45588;51.598;5.618;2022-10-26T03:53:41;101135.97;;;10.16;100.00
59729;BME280;45588;51.598;5.618;2022-10-26T03:56:06;101133.44;;;10.19;100.00
59729;BME280;45588;51.598;5.618;2022-10-26T03:58:32;101136.97;;;10.22;100.00
59729;BME280;45588;51.598;5.618;2022-10-26T04:00:57;101138.69;;;10.21;100.00
59729;BME280;45588;51.598;5.618;2022-10-26T04:03:22;101131.78;;;10.22;100.00
59729;BME280;45588;51.598;5.618;2022-10-26T04:05:47;101138.84;;;10.26;100.00
59729;BME280;45588;51.598;5.618;2022-10-26T04:08:13;101134.47;;;10.25;100.00
59729;BME280;45588;51.598;5.618;2022-10-26T04:10:38;101129.09;;;10.18;100.00
59729;BME280;45588;51.598;5.618;2022-10-26T04:13:03;101134.38;;;10.22;100.00
59729;BME280;45588;51.598;5.618;2022-10-26T04:15:29;101127.44;;;10.22;100.00
59729;BME280;45588;51.598;5.618;2022-10-26T04:17:58;101129.16;;;10.22;100.00
59729;BME280;45588;51.598;5.618;2022-10-26T04:20:25;101137.03;;;10.23;100.00
59729;BME280;45588;51.598;5.618;2022-10-26T04:23:02;101141.38;;;10.24;100.00
59729;BME280;45588;51.598;5.618;2022-10-26T04:25:29;101128.25;;;10.19;100.00
59729;BME280;45588;51.598;5.618;2022-10-26T04:27:54;101130.97;;;10.24;100.00
59729;BME280;45588;51.598;5.618;2022-10-26T04:30:20;101131.22;;;10.32;100.00
59729;BME280;45588;51.598;5.618;2022-10-26T04:32:45;101133.91;;;10.35;100.00
59729;BME280;45588;51.598;5.618;2022-10-26T04:35:11;101129.59;;;10.35;100.00
59729;BME280;45588;51.598;5.618;2022-10-26T04:37:36;101128.09;;;10.44;100.00
59729;BME280;45588;51.598;5.618;2022-10-26T04:40:02;101122.97;;;10.47;100.00
59729;BME280;45588;51.598;5.618;2022-10-26T04:42:27;101115.22;;;10.48;100.00
59729;BME280;45588;51.598;5.618;2022-10-26T04:44:52;101121.38;;;10.52;100.00
59729;BME280;45588;51.598;5.618;2022-10-26T04:47:18;101112.78;;;10.54;100.00
59729;BME280;45588;51.598;5.618;2022-10-26T04:49:43;101112.84;;;10.57;100.00
59729;BME280;45588;51.598;5.618;2022-10-26T04:52:08;101111.16;;;10.59;100.00
59729;BME280;45588;51.598;5.618;2022-10-26T04:54:33;101117.31;;;10.61;100.00
59729;BME280;45588;51.598;5.618;2022-10-26T04:56:59;101117.19;;;10.57;100.00
59729;BME280;45588;51.598;5.618;2022-10-26T04:59:24;101108.50;;;10.56;100.00
59729;BME280;45588;51.598;5.618;2022-10-26T05:01:50;101105.16;;;10.62;100.00
59729;BME280;45588;51.598;5.618;2022-10-26T05:04:15;101117.38;;;10.65;100.00
59729;BME280;45588;51.598;5.618;2022-10-26T05:06:40;101115.72;;;10.67;100.00
59729;BME280;45588;51.598;5.618;2022-10-26T05:09:06;101117.59;;;10.72;100.00
59729;BME280;45588;51.598;5.618;2022-10-26T05:11:31;101126.34;;;10.76;100.00
59729;BME280;45588;51.598;5.618;2022-10-26T05:13:56;101126.47;;;10.79;100.00
59729;BME280;45588;51.598;5.618;2022-10-26T05:16:22;101130.00;;;10.81;100.00
59729;BME280;45588;51.598;5.618;2022-10-26T05:18:47;101116.97;;;10.81;100.00
59729;BME280;45588;51.598;5.618;2022-10-26T05:21:13;101117.88;;;10.83;100.00
59729;BME280;45588;51.598;5.618;2022-10-26T05:23:43;101125.81;;;10.88;100.00
59729;BME280;45588;51.598;5.618;2022-10-26T05:26:09;101121.53;;;10.90;100.00
59729;BME280;45588;51.598;5.618;2022-10-26T05:28:34;101124.19;;;10.93;100.00
59729;BME280;45588;51.598;5.618;2022-10-26T05:30:59;101122.47;;;10.93;100.00
59729;BME280;45588;51.598;5.618;2022-10-26T05:33:25;101125.19;;;10.96;100.00
59729;BME280;45588;51.598;5.618;2022-10-26T05:35:53;101124.38;;;10.99;100.00
59729;BME280;45588;51.598;5.618;2022-10-26T05:38:18;101123.47;;;10.98;100.00
59729;BME280;45588;51.598;5.618;2022-10-26T05:40:51;101123.56;;;11.01;100.00
59729;BME280;45588;51.598;5.618;2022-10-26T05:43:18;101123.59;;;11.03;100.00
59729;BME280;45588;51.598;5.618;2022-10-26T05:45:44;101130.59;;;11.05;100.00
59729;BME280;45588;51.598;5.618;2022-10-26T05:48:10;101127.13;;;11.05;100.00
59729;BME280;45588;51.598;5.618;2022-10-26T05:50:35;101127.13;;;11.05;100.00
59729;BME280;45588;51.598;5.618;2022-10-26T05:53:00;101124.59;;;11.08;100.00
59729;BME280;45588;51.598;5.618;2022-10-26T05:55:26;101128.84;;;11.04;100.00
59729;BME280;45588;51.598;5.618;2022-10-26T05:57:52;101127.19;;;11.07;100.00
59729;BME280;45588;51.598;5.618;2022-10-26T06:00:22;101136.81;;;11.11;100.00
59729;BME280;45588;51.598;5.618;2022-10-26T06:03:04;101138.63;;;11.13;100.00
59729;BME280;45588;51.598;5.618;2022-10-26T06:05:36;101146.53;;;11.16;100.00
59729;BME280;45588;51.598;5.618;2022-10-26T06:08:02;101145.63;;;11.16;100.00
59729;BME280;45588;51.598;5.618;2022-10-26T06:10:27;101144.88;;;11.20;100.00
59729;BME280;45588;51.598;5.618;2022-10-26T06:12:53;101146.63;;;11.21;100.00
59729;BME280;45588;51.598;5.618;2022-10-26T06:15:20;101161.47;;;11.23;100.00
59729;BME280;45588;51.598;5.618;2022-10-26T06:18:07;101165.88;;;11.26;100.00
59729;BME280;45588;51.598;5.618;2022-10-26T06:20:41;101163.28;;;11.26;100.00
59729;BME280;45588;51.598;5.618;2022-10-26T06:23:39;101164.13;;;11.25;100.00
59729;BME280;45588;51.598;5.618;2022-10-26T06:26:20;101162.38;;;11.24;100.00
59729;BME280;45588;51.598;5.618;2022-10-26T06:29:15;101158.97;;;11.28;100.00
59729;BME280;45588;51.598;5.618;2022-10-26T06:31:44;101165.94;;;11.27;100.00
59729;BME280;45588;51.598;5.618;2022-10-26T06:34:12;101168.50;;;11.26;100.00
59729;BME280;45588;51.598;5.618;2022-10-26T06:36:40;101167.59;;;11.24;100.00
59729;BME280;45588;51.598;5.618;2022-10-26T06:39:09;101176.03;;;11.15;100.00
59729;BME280;45588;51.598;5.618;2022-10-26T06:41:36;101169.81;;;11.10;100.00
59729;BME280;45588;51.598;5.618;2022-10-26T06:44:03;101165.50;;;11.11;100.00
59729;BME280;45588;51.598;5.618;2022-10-26T06:46:47;101164.50;;;11.05;100.00
59729;BME280;45588;51.598;5.618;2022-10-26T06:52:44;101161.06;;;11.07;100.00
59729;BME280;45588;51.598;5.618;2022-10-26T06:55:14;101159.28;;;11.05;100.00
59729;BME280;45588;51.598;5.618;2022-10-26T06:57:41;101149.31;;;10.89;100.00
59729;BME280;45588;51.598;5.618;2022-10-26T07:02:39;101147.72;;;10.96;100.00
59729;BME280;45588;51.598;5.618;2022-10-26T07:05:04;101153.88;;;10.98;100.00
59729;BME280;45588;51.598;5.618;2022-10-26T07:07:38;101159.06;;;10.98;100.00
59729;BME280;45588;51.598;5.618;2022-10-26T07:10:06;101154.84;;;11.01;100.00
59729;BME280;45588;51.598;5.618;2022-10-26T07:12:31;101146.41;;;11.12;100.00
59729;BME280;45588;51.598;5.618;2022-10-26T07:14:56;101151.16;;;11.26;100.00
59729;BME280;45588;51.598;5.618;2022-10-26T07:17:22;101155.56;;;11.29;100.00
59729;BME280;45588;51.598;5.618;2022-10-26T07:19:47;101155.50;;;11.27;100.00
59729;BME280;45588;51.598;5.618;2022-10-26T07:22:13;101152.09;;;11.30;100.00
59729;BME280;45588;51.598;5.618;2022-10-26T07:24:38;101148.63;;;11.31;100.00
59729;BME280;45588;51.598;5.618;2022-10-26T07:27:04;101166.47;;;11.49;100.00
59729;BME280;45588;51.598;5.618;2022-10-26T07:29:29;101175.53;;;11.65;100.00
59729;BME280;45588;51.598;5.618;2022-10-26T07:31:54;101168.88;;;11.78;100.00
59729;BME280;45588;51.598;5.618;2022-10-26T07:34:19;101170.13;;;11.92;100.00
59729;BME280;45588;51.598;5.618;2022-10-26T07:36:45;101173.03;;;12.06;100.00
59729;BME280;45588;51.598;5.618;2022-10-26T07:39:10;101187.22;;;12.17;100.00
59729;BME280;45588;51.598;5.618;2022-10-26T07:41:35;101187.47;;;12.29;100.00
59729;BME280;45588;51.598;5.618;2022-10-26T07:44:01;101194.72;;;12.43;100.00
59729;BME280;45588;51.598;5.618;2022-10-26T07:46:26;101201.03;;;12.54;100.00
59729;BME280;45588;51.598;5.618;2022-10-26T07:48:52;101199.66;;;12.71;100.00
59729;BME280;45588;51.598;5.618;2022-10-26T07:51:17;101193.81;;;12.83;100.00
59729;BME280;45588;51.598;5.618;2022-10-26T07:53:43;101186.94;;;12.90;100.00
59729;BME280;45588;51.598;5.618;2022-10-26T07:56:09;101192.44;;;13.04;100.00
59729;BME280;45588;51.598;5.618;2022-10-26T07:58:34;101204.78;;;13.12;100.00
59729;BME280;45588;51.598;5.618;2022-10-26T08:01:08;101213.72;;;13.24;100.00
59729;BME280;45588;51.598;5.618;2022-10-26T08:03:34;101221.00;;;13.38;100.00
59729;BME280;45588;51.598;5.618;2022-10-26T08:05:59;101229.03;;;13.49;100.00
59729;BME280;45588;51.598;5.618;2022-10-26T08:08:24;101219.56;;;13.57;100.00
59729;BME280;45588;51.598;5.618;2022-10-26T08:10:50;101214.47;;;13.65;100.00
59729;BME280;45588;51.598;5.618;2022-10-26T08:13:16;101214.53;;;13.70;100.00
59729;BME280;45588;51.598;5.618;2022-10-26T08:15:41;101215.44;;;13.73;100.00
59729;BME280;45588;51.598;5.618;2022-10-26T08:18:07;101227.88;;;13.85;100.00
59729;BME280;45588;51.598;5.618;2022-10-26T08:20:32;101229.91;;;14.04;100.00
59729;BME280;45588;51.598;5.618;2022-10-26T08:22:58;101234.50;;;14.19;100.00
59729;BME280;45588;51.598;5.618;2022-10-26T08:25:25;101237.31;;;14.33;100.00
59729;BME280;45588;51.598;5.618;2022-10-26T08:27:50;101238.19;;;14.34;100.00
59729;BME280;45588;51.598;5.618;2022-10-26T08:30:16;101236.78;;;14.56;100.00
59729;BME280;45588;51.598;5.618;2022-10-26T08:32:41;101232.72;;;14.81;100.00
59729;BME280;45588;51.598;5.618;2022-10-26T08:35:07;101229.34;;;14.91;100.00
59729;BME280;45588;51.598;5.618;2022-10-26T08:37:33;101232.94;;;15.01;100.00
59729;BME280;45588;51.598;5.618;2022-10-26T08:39:58;101235.66;;;15.07;100.00
59729;BME280;45588;51.598;5.618;2022-10-26T08:42:29;101238.38;;;15.19;100.00
59729;BME280;45588;51.598;5.618;2022-10-26T08:45:03;101237.59;;;15.28;100.00
59729;BME280;45588;51.598;5.618;2022-10-26T08:47:35;101247.31;;;15.36;100.00
59729;BME280;45588;51.598;5.618;2022-10-26T08:52:53;101243.13;;;15.58;100.00
59729;BME280;45588;51.598;5.618;2022-10-26T08:55:33;101243.22;;;15.68;100.00
59729;BME280;45588;51.598;5.618;2022-10-26T08:58:04;101238.94;;;15.73;100.00
59729;BME280;45588;51.598;5.618;2022-10-26T09:00:31;101239.81;;;15.76;100.00
59729;BME280;45588;51.598;5.618;2022-10-26T09:02:57;101245.16;;;15.86;100.00
59729;BME280;45588;51.598;5.618;2022-10-26T09:05:31;101238.16;;;15.86;100.00
59729;BME280;45588;51.598;5.618;2022-10-26T09:13:58;101233.19;;;16.29;100.00
59729;BME280;45588;51.598;5.618;2022-10-26T09:16:34;101229.72;;;16.33;100.00
59729;BME280;45588;51.598;5.618;2022-10-26T09:22:03;101236.84;;;16.56;100.00
59729;BME280;45588;51.598;5.618;2022-10-26T09:24:32;101249.97;;;16.60;100.00
59729;BME280;45588;51.598;5.618;2022-10-26T09:27:11;101257.06;;;16.71;100.00
59729;BME280;45588;51.598;5.618;2022-10-26T09:29:40;101268.47;;;16.77;100.00
59729;BME280;45588;51.598;5.618;2022-10-26T09:32:12;101260.66;;;16.88;100.00
59729;BME280;45588;51.598;5.618;2022-10-26T09:34:54;101260.72;;;17.05;100.00
59729;BME280;45588;51.598;5.618;2022-10-26T09:37:25;101268.63;;;17.16;100.00
59729;BME280;45588;51.598;5.618;2022-10-26T09:40:07;101275.66;;;17.17;100.00
59729;BME280;45588;51.598;5.618;2022-10-26T09:42:40;101283.56;;;17.20;100.00
59729;BME280;45588;51.598;5.618;2022-10-26T09:45:22;101293.25;;;17.41;100.00
59729;BME280;45588;51.598;5.618;2022-10-26T09:47:50;101291.53;;;17.50;100.00
59729;BME280;45588;51.598;5.618;2022-10-26T09:50:25;101295.06;;;17.62;100.00
59729;BME280;45588;51.598;5.618;2022-10-26T09:52:52;101296.84;;;17.69;100.00
59729;BME280;45588;51.598;5.618;2022-10-26T09:55:17;101315.28;;;17.77;100.00
59729;BME280;45588;51.598;5.618;2022-10-26T09:57:46;101317.03;;;17.76;100.00
59729;BME280;45588;51.598;5.618;2022-10-26T10:00:15;101317.06;;;17.85;100.00
59729;BME280;45588;51.598;5.618;2022-10-26T10:02:50;101321.47;;;17.85;100.00
59729;BME280;45588;51.598;5.618;2022-10-26T10:07:45;101327.59;;;17.79;100.00
59729;BME280;45588;51.598;5.618;2022-10-26T10:10:22;101324.13;;;17.89;100.00
59729;BME280;45588;51.598;5.618;2022-10-26T10:12:49;101324.09;;;17.94;100.00
59729;BME280;45588;51.598;5.618;2022-10-26T10:15:17;101332.91;;;17.98;100.00
59729;BME280;45588;51.598;5.618;2022-10-26T10:17:48;101344.31;;;17.98;100.00
59729;BME280;45588;51.598;5.618;2022-10-26T10:20:19;101351.31;;;18.19;100.00
59729;BME280;45588;51.598;5.618;2022-10-26T10:22:56;101347.81;;;18.31;100.00
59729;BME280;45588;51.598;5.618;2022-10-26T10:27:52;101355.72;;;18.35;100.00
59729;BME280;45588;51.598;5.618;2022-10-26T10:30:27;101349.56;;;18.47;100.00
59729;BME280;45588;51.598;5.618;2022-10-26T10:33:11;101366.25;;;18.51;100.00
59729;BME280;45588;51.598;5.618;2022-10-26T10:35:39;101365.38;;;18.53;100.00
59729;BME280;45588;51.598;5.618;2022-10-26T10:38:17;101372.41;;;18.39;100.00
59729;BME280;45588;51.598;5.618;2022-10-26T10:40:51;101378.56;;;18.55;100.00
59729;BME280;45588;51.598;5.618;2022-10-26T10:43:18;101378.56;;;18.46;100.00
59729;BME280;45588;51.598;5.618;2022-10-26T10:45:50;101380.31;;;18.59;100.00
59729;BME280;45588;51.598;5.618;2022-10-26T10:48:19;101384.72;;;18.63;100.00
59729;BME280;45588;51.598;5.618;2022-10-26T10:50:55;101386.44;;;18.73;100.00
59729;BME280;45588;51.598;5.618;2022-10-26T10:59:02;101391.69;;;19.04;100.00
59729;BME280;45588;51.598;5.618;2022-10-26T11:01:38;101391.69;;;19.10;100.00
59729;BME280;45588;51.598;5.618;2022-10-26T11:04:24;101396.00;;;19.33;100.00
59729;BME280;45588;51.598;5.618;2022-10-26T11:06:55;101400.34;;;19.43;100.00
59729;BME280;45588;51.598;5.618;2022-10-26T11:09:26;101397.72;;;19.38;100.00
59729;BME280;45588;51.598;5.618;2022-10-26T11:11:56;101407.41;;;19.32;100.00
59729;BME280;45588;51.598;5.618;2022-10-26T11:14:27;101413.59;;;19.24;100.00
59729;BME280;45588;51.598;5.618;2022-10-26T11:19:53;101430.38;;;19.13;100.00
59729;BME280;45588;51.598;5.618;2022-10-26T11:22:30;101431.25;;;19.18;100.00
59729;BME280;45588;51.598;5.618;2022-10-26T11:25:02;101425.03;;;19.25;100.00
59729;BME280;45588;51.598;5.618;2022-10-26T11:27:41;101418.84;;;19.38;100.00
59729;BME280;45588;51.598;5.618;2022-10-26T11:30:23;101424.06;;;19.48;100.00
59729;BME280;45588;51.598;5.618;2022-10-26T11:33:24;101430.19;;;19.62;100.00
59729;BME280;45588;51.598;5.618;2022-10-26T11:35:57;101435.59;;;19.30;100.00
59729;BME280;45588;51.598;5.618;2022-10-26T11:38:47;101439.13;;;19.29;100.00
59729;BME280;45588;51.598;5.618;2022-10-26T11:41:33;101460.25;;;19.27;100.00
59729;BME280;45588;51.598;5.618;2022-10-26T11:44:21;101454.09;;;19.31;100.00
59729;BME280;45588;51.598;5.618;2022-10-26T11:47:02;101440.91;;;19.28;100.00
59729;BME280;45588;51.598;5.618;2022-10-26T11:49:41;101446.13;;;19.43;100.00
59729;BME280;45588;51.598;5.618;2022-10-26T11:52:29;101446.09;;;19.50;100.00
59729;BME280;45588;51.598;5.618;2022-10-26T11:54:59;101447.88;;;19.41;100.00
59729;BME280;45588;51.598;5.618;2022-10-26T11:57:31;101445.31;;;19.24;100.00
59729;BME280;45588;51.598;5.618;2022-10-26T12:00:01;101436.53;;;19.18;100.00
59729;BME280;45588;51.598;5.618;2022-10-26T12:02:34;101433.88;;;19.15;100.00
59729;BME280;45588;51.598;5.618;2022-10-26T12:05:07;101442.69;;;19.14;100.00
59729;BME280;45588;51.598;5.618;2022-10-26T12:07:43;101457.63;;;19.22;100.00
59729;BME280;45588;51.598;5.618;2022-10-26T12:10:21;101454.94;;;19.30;100.00
59729;BME280;45588;51.598;5.618;2022-10-26T12:15:49;101455.00;;;19.16;100.00
59729;BME280;45588;51.598;5.618;2022-10-26T12:18:25;101456.75;;;19.17;100.00
59729;BME280;45588;51.598;5.618;2022-10-26T12:20:59;101452.38;;;19.15;100.00
59729;BME280;45588;51.598;5.618;2022-10-26T12:23:36;101456.78;;;19.14;100.00
59729;BME280;45588;51.598;5.618;2022-10-26T12:26:37;101460.28;;;19.16;100.00
59729;BME280;45588;51.598;5.618;2022-10-26T12:33:58;101469.09;;;19.23;100.00
59729;BME280;45588;51.598;5.618;2022-10-26T12:42:17;101476.13;;;19.24;100.00
59729;BME280;45588;51.598;5.618;2022-10-26T12:50:21;101487.53;;;19.28;100.00
59729;BME280;45588;51.598;5.618;2022-10-26T12:52:52;101485.78;;;19.25;100.00
59729;BME280;45588;51.598;5.618;2022-10-26T12:58:33;101491.94;;;19.33;100.00
59729;BME280;45588;51.598;5.618;2022-10-26T13:04:07;101477.84;;;19.34;100.00
59729;BME280;45588;51.598;5.618;2022-10-26T13:06:51;101479.63;;;19.28;100.00
59729;BME280;45588;51.598;5.618;2022-10-26T13:09:24;101481.38;;;19.32;100.00
59729;BME280;45588;51.598;5.618;2022-10-26T13:11:54;101474.34;;;19.35;100.00
59729;BME280;45588;51.598;5.618;2022-10-26T13:14:28;101480.47;;;19.37;100.00
59729;BME280;45588;51.598;5.618;2022-10-26T13:16:55;101478.72;;;19.36;100.00
59729;BME280;45588;51.598;5.618;2022-10-26T13:19:31;101481.34;;;19.39;100.00
59729;BME280;45588;51.598;5.618;2022-10-26T13:21:58;101476.06;;;19.41;100.00
59729;BME280;45588;51.598;5.618;2022-10-26T13:24:27;101478.72;;;19.39;100.00
59729;BME280;45588;51.598;5.618;2022-10-26T13:29:32;101484.00;;;19.35;100.00
59729;BME280;45588;51.598;5.618;2022-10-26T13:32:17;101486.63;;;19.42;100.00
59729;BME280;45588;51.598;5.618;2022-10-26T13:34:43;101488.44;;;19.31;100.00
59729;BME280;45588;51.598;5.618;2022-10-26T13:37:36;101498.97;;;19.37;100.00
59729;BME280;45588;51.598;5.618;2022-10-26T13:40:04;101494.59;;;19.38;100.00
59729;BME280;45588;51.598;5.618;2022-10-26T13:42:41;101505.13;;;19.35;100.00
59729;BME280;45588;51.598;5.618;2022-10-26T13:45:13;101501.59;;;19.42;100.00
59729;BME280;45588;51.598;5.618;2022-10-26T13:47:43;101506.84;;;19.45;100.00
59729;BME280;45588;51.598;5.618;2022-10-26T13:50:15;101511.28;;;19.40;100.00
59729;BME280;45588;51.598;5.618;2022-10-26T13:52:44;101510.44;;;19.38;100.00
59729;BME280;45588;51.598;5.618;2022-10-26T14:00:20;101498.97;;;19.30;100.00
59729;BME280;45588;51.598;5.618;2022-10-26T14:02:46;101510.44;;;19.27;100.00
59729;BME280;45588;51.598;5.618;2022-10-26T14:05:15;101512.19;;;19.27;100.00
59729;BME280;45588;51.598;5.618;2022-10-26T14:07:44;101505.13;;;19.30;100.00
59729;BME280;45588;51.598;5.618;2022-10-26T14:12:59;101498.13;;;19.21;100.00
59729;BME280;45588;51.598;5.618;2022-10-26T14:15:29;101499.00;;;19.23;100.00
59729;BME280;45588;51.598;5.618;2022-10-26T14:17:57;101508.69;;;19.29;100.00
59729;BME280;45588;51.598;5.618;2022-10-26T14:20:24;101516.59;;;19.29;100.00
59729;BME280;45588;51.598;5.618;2022-10-26T14:22:51;101516.63;;;19.15;100.00
59729;BME280;45588;51.598;5.618;2022-10-26T14:27:46;101523.69;;;19.13;100.00
59729;BME280;45588;51.598;5.618;2022-10-26T14:30:29;101537.75;;;19.15;100.00
59729;BME280;45588;51.598;5.618;2022-10-26T14:32:56;101550.97;;;19.15;100.00